sensor_id;sensor_type;location;lat;lon;timestamp;pressure;altitude;pressure_sealevel;temperature;humidity
37848;BME280;23688;33.130;-117.188;2022-12-29T00:01:34;99270.97;;;15.01;85.93
37848;BME280;23688;33.130;-117.188;2022-12-29T00:04:01;99279.66;;;15.02;85.89
37848;BME280;23688;33.130;-117.188;2022-12-29T00:06:28;99281.94;;;14.83;84.88
37848;BME280;23688;33.130;-117.188;2022-12-29T00:08:55;99261.38;;;14.59;85.42
37848;BME280;23688;33.130;-117.188;2022-12-29T00:11:23;99296.44;;;14.69;85.67
37848;BME280;23688;33.130;-117.188;2022-12-29T00:13:49;99300.69;;;14.64;87.52
37848;BME280;23688;33.130;-117.188;2022-12-29T00:16:35;99293.38;;;14.50;89.34
37848;BME280;23688;33.130;-117.188;2022-12-29T00:19:03;99294.19;;;14.48;90.18
37848;BME280;23688;33.130;-117.188;2022-12-29T00:21:29;99292.38;;;14.44;91.50
37848;BME280;23688;33.130;-117.188;2022-12-29T00:24:19;99289.19;;;14.19;93.68
37848;BME280;23688;33.130;-117.188;2022-12-29T00:26:56;99300.53;;;14.20;95.49
37848;BME280;23688;33.130;-117.188;2022-12-29T00:29:42;99303.94;;;14.17;97.03
37848;BME280;23688;33.130;-117.188;2022-12-29T00:32:26;99296.81;;;14.11;96.64
37848;BME280;23688;33.130;-117.188;2022-12-29T00:35:17;99285.09;;;13.94;96.96
37848;BME280;23688;33.130;-117.188;2022-12-29T00:37:48;99295.41;;;13.89;97.11
37848;BME280;23688;33.130;-117.188;2022-12-29T00:40:33;99301.50;;;13.88;97.83
37848;BME280;23688;33.130;-117.188;2022-12-29T00:43:17;99291.00;;;13.85;98.55
37848;BME280;23688;33.130;-117.188;2022-12-29T00:46:02;99305.03;;;13.90;99.72
37848;BME280;23688;33.130;-117.188;2022-12-29T00:48:28;99297.72;;;13.76;100.00
37848;BME280;23688;33.130;-117.188;2022-12-29T00:51:13;99300.00;;;13.63;100.00
37848;BME280;23688;33.130;-117.188;2022-12-29T00:53:39;99313.69;;;13.55;100.00
37848;BME280;23688;33.130;-117.188;2022-12-29T00:56:06;99324.38;;;13.64;100.00
37848;BME280;23688;33.130;-117.188;2022-12-29T00:58:32;99305.78;;;13.52;100.00
37848;BME280;23688;33.130;-117.188;2022-12-29T01:01:06;99317.16;;;13.55;100.00
37848;BME280;23688;33.130;-117.188;2022-12-29T01:03:34;99316.22;;;13.52;100.00
37848;BME280;23688;33.130;-117.188;2022-12-29T01:06:05;99310.00;;;13.48;100.00
37848;BME280;23688;33.130;-117.188;2022-12-29T01:08:32;99320.75;;;13.59;100.00
37848;BME280;23688;33.130;-117.188;2022-12-29T01:11:00;99315.03;;;13.40;100.00
37848;BME280;23688;33.130;-117.188;2022-12-29T01:13:27;99322.06;;;13.43;100.00
37848;BME280;23688;33.130;-117.188;2022-12-29T01:15:54;99330.81;;;13.45;100.00
37848;BME280;23688;33.130;-117.188;2022-12-29T01:18:21;99339.47;;;13.44;100.00
37848;BME280;23688;33.130;-117.188;2022-12-29T01:20:48;99336.47;;;13.30;100.00
37848;BME280;23688;33.130;-117.188;2022-12-29T01:23:15;99339.72;;;13.53;100.00
37848;BME280;23688;33.130;-117.188;2022-12-29T01:25:41;99334.03;;;13.68;100.00
37848;BME280;23688;33.130;-117.188;2022-12-29T01:28:08;99338.34;;;13.67;100.00
37848;BME280;23688;33.130;-117.188;2022-12-29T01:30:35;99341.63;;;13.60;100.00
37848;BME280;23688;33.130;-117.188;2022-12-29T01:33:01;99338.91;;;13.56;100.00
37848;BME280;23688;33.130;-117.188;2022-12-29T01:35:28;99345.84;;;13.54;100.00
37848;BME280;23688;33.130;-117.188;2022-12-29T01:37:54;99351.19;;;13.58;100.00
37848;BME280;23688;33.130;-117.188;2022-12-29T01:40:21;99345.09;;;13.59;100.00
37848;BME280;23688;33.130;-117.188;2022-12-29T01:42:47;99350.41;;;13.62;100.00
37848;BME280;23688;33.130;-117.188;2022-12-29T01:45:15;99356.50;;;13.63;100.00
37848;BME280;23688;33.130;-117.188;2022-12-29T01:47:45;99362.50;;;13.60;100.00
37848;BME280;23688;33.130;-117.188;2022-12-29T01:50:37;99363.38;;;13.59;100.00
37848;BME280;23688;33.130;-117.188;2022-12-29T01:53:11;99356.94;;;13.46;100.00
37848;BME280;23688;33.130;-117.188;2022-12-29T01:55:44;99343.72;;;13.40;100.00
37848;BME280;23688;33.130;-117.188;2022-12-29T01:58:13;99364.72;;;13.45;100.00
37848;BME280;23688;33.130;-117.188;2022-12-29T02:00:41;99350.53;;;13.35;100.00
37848;BME280;23688;33.130;-117.188;2022-12-29T02:03:08;99362.22;;;13.49;100.00
37848;BME280;23688;33.130;-117.188;2022-12-29T02:08:05;99369.25;;;13.52;100.00
37848;BME280;23688;33.130;-117.188;2022-12-29T02:10:33;99356.00;;;13.44;100.00
37848;BME280;23688;33.130;-117.188;2022-12-29T02:13:01;99373.59;;;13.52;100.00
37848;BME280;23688;33.130;-117.188;2022-12-29T02:19:04;99388.41;;;13.24;100.00
37848;BME280;23688;33.130;-117.188;2022-12-29T02:24:36;99405.13;;;13.02;100.00
37848;BME280;23688;33.130;-117.188;2022-12-29T02:35:16;99399.84;;;12.99;100.00
37848;BME280;23688;33.130;-117.188;2022-12-29T02:41:12;99397.25;;;13.27;100.00
37848;BME280;23688;33.130;-117.188;2022-12-29T02:49:33;99383.91;;;13.47;100.00
37848;BME280;23688;33.130;-117.188;2022-12-29T02:52:06;99400.69;;;13.57;100.00
37848;BME280;23688;33.130;-117.188;2022-12-29T02:54:35;99393.00;;;13.61;100.00
37848;BME280;23688;33.130;-117.188;2022-12-29T02:57:32;99390.47;;;13.64;100.00
37848;BME280;23688;33.130;-117.188;2022-12-29T03:00:08;99395.66;;;13.64;100.00
37848;BME280;23688;33.130;-117.188;2022-12-29T03:11:15;99412.34;;;13.69;100.00
37848;BME280;23688;33.130;-117.188;2022-12-29T03:14:07;99417.53;;;13.69;100.00
37848;BME280;23688;33.130;-117.188;2022-12-29T03:17:02;99419.16;;;13.64;100.00
37848;BME280;23688;33.130;-117.188;2022-12-29T03:19:36;99415.59;;;13.62;100.00
37848;BME280;23688;33.130;-117.188;2022-12-29T03:22:12;99408.59;;;13.60;100.00
37848;BME280;23688;33.130;-117.188;2022-12-29T03:27:44;99434.06;;;13.68;100.00
37848;BME280;23688;33.130;-117.188;2022-12-29T03:30:12;99434.09;;;13.70;100.00
37848;BME280;23688;33.130;-117.188;2022-12-29T03:32:42;99433.28;;;13.73;100.00
37848;BME280;23688;33.130;-117.188;2022-12-29T03:35:12;99421.09;;;13.72;100.00
37848;BME280;23688;33.130;-117.188;2022-12-29T03:37:43;99422.03;;;13.74;100.00
37848;BME280;23688;33.130;-117.188;2022-12-29T03:40:12;99408.72;;;13.64;100.00
37848;BME280;23688;33.130;-117.188;2022-12-29T03:42:39;99428.91;;;13.72;100.00
37848;BME280;23688;33.130;-117.188;2022-12-29T03:45:07;99421.09;;;13.72;100.00
37848;BME280;23688;33.130;-117.188;2022-12-29T03:47:35;99406.97;;;13.65;100.00
37848;BME280;23688;33.130;-117.188;2022-12-29T03:50:04;99421.16;;;13.73;100.00
37848;BME280;23688;33.130;-117.188;2022-12-29T03:52:31;99424.69;;;13.77;100.00
37848;BME280;23688;33.130;-117.188;2022-12-29T03:54:57;99437.00;;;13.81;100.00
37848;BME280;23688;33.130;-117.188;2022-12-29T03:57:24;99430.84;;;13.79;100.00
37848;BME280;23688;33.130;-117.188;2022-12-29T03:59:50;99440.56;;;13.84;100.00
37848;BME280;23688;33.130;-117.188;2022-12-29T04:02:16;99434.47;;;13.84;100.00
37848;BME280;23688;33.130;-117.188;2022-12-29T04:04:44;99436.06;;;13.79;100.00
37848;BME280;23688;33.130;-117.188;2022-12-29T04:07:10;99443.16;;;13.83;100.00
37848;BME280;23688;33.130;-117.188;2022-12-29T04:09:36;99431.00;;;13.85;100.00
37848;BME280;23688;33.130;-117.188;2022-12-29T04:12:04;99428.50;;;13.88;100.00
37848;BME280;23688;33.130;-117.188;2022-12-29T04:14:30;99430.78;;;13.76;100.00
37848;BME280;23688;33.130;-117.188;2022-12-29T04:16:56;99422.97;;;13.77;100.00
37848;BME280;23688;33.130;-117.188;2022-12-29T04:19:23;99416.13;;;13.81;100.00
37848;BME280;23688;33.130;-117.188;2022-12-29T04:21:49;99410.59;;;13.70;100.00
37848;BME280;23688;33.130;-117.188;2022-12-29T04:24:15;99426.25;;;13.70;100.00
37848;BME280;23688;33.130;-117.188;2022-12-29T04:26:42;99421.84;;;13.67;100.00
37848;BME280;23688;33.130;-117.188;2022-12-29T04:29:08;99410.47;;;13.65;100.00
37848;BME280;23688;33.130;-117.188;2022-12-29T04:31:35;99397.28;;;13.59;100.00
37848;BME280;23688;33.130;-117.188;2022-12-29T04:34:02;99402.56;;;13.62;100.00
37848;BME280;23688;33.130;-117.188;2022-12-29T04:36:28;99408.00;;;13.70;100.00
37848;BME280;23688;33.130;-117.188;2022-12-29T04:38:54;99399.94;;;13.61;100.00
37848;BME280;23688;33.130;-117.188;2022-12-29T04:41:21;99403.28;;;13.57;100.00
37848;BME280;23688;33.130;-117.188;2022-12-29T04:43:47;99406.78;;;13.57;100.00
37848;BME280;23688;33.130;-117.188;2022-12-29T04:46:14;99403.28;;;13.57;100.00
37848;BME280;23688;33.130;-117.188;2022-12-29T04:48:42;99405.84;;;13.55;100.00
37848;BME280;23688;33.130;-117.188;2022-12-29T04:51:08;99405.84;;;13.55;100.00
37848;BME280;23688;33.130;-117.188;2022-12-29T04:53:34;99404.75;;;13.47;100.00
37848;BME280;23688;33.130;-117.188;2022-12-29T04:56:00;99404.69;;;13.45;100.00
37848;BME280;23688;33.130;-117.188;2022-12-29T04:58:27;99390.53;;;13.36;100.00
37848;BME280;23688;33.130;-117.188;2022-12-29T05:00:53;99394.91;;;13.37;100.00
37848;BME280;23688;33.130;-117.188;2022-12-29T05:03:20;99408.69;;;13.33;100.00
37848;BME280;23688;33.130;-117.188;2022-12-29T05:05:47;99411.94;;;13.25;100.00
37848;BME280;23688;33.130;-117.188;2022-12-29T05:08:13;99423.22;;;13.26;100.00
37848;BME280;23688;33.130;-117.188;2022-12-29T05:10:39;99430.97;;;13.23;100.00
37848;BME280;23688;33.130;-117.188;2022-12-29T05:13:06;99417.50;;;13.09;100.00
37848;BME280;23688;33.130;-117.188;2022-12-29T05:15:32;99431.47;;;13.10;100.00
37848;BME280;23688;33.130;-117.188;2022-12-29T05:17:58;99433.88;;;13.03;100.00
37848;BME280;23688;33.130;-117.188;2022-12-29T05:20:25;99444.34;;;13.05;100.00
37848;BME280;23688;33.130;-117.188;2022-12-29T05:22:51;99440.59;;;12.97;100.00
37848;BME280;23688;33.130;-117.188;2022-12-29T05:25:18;99437.06;;;12.95;100.00
37848;BME280;23688;33.130;-117.188;2022-12-29T05:27:44;99452.53;;;12.89;100.00
37848;BME280;23688;33.130;-117.188;2022-12-29T05:30:12;99469.78;;;12.85;100.00
37848;BME280;23688;33.130;-117.188;2022-12-29T05:32:39;99469.44;;;12.74;100.00
37848;BME280;23688;33.130;-117.188;2022-12-29T05:35:05;99453.34;;;12.60;100.00
37848;BME280;23688;33.130;-117.188;2022-12-29T05:37:32;99469.88;;;12.61;100.00
37848;BME280;23688;33.130;-117.188;2022-12-29T05:39:58;99489.69;;;12.56;100.00
37848;BME280;23688;33.130;-117.188;2022-12-29T05:42:26;99456.78;;;12.32;100.00
37848;BME280;23688;33.130;-117.188;2022-12-29T05:44:52;99487.56;;;12.44;100.00
37848;BME280;23688;33.130;-117.188;2022-12-29T05:47:19;99504.69;;;12.37;100.00
37848;BME280;23688;33.130;-117.188;2022-12-29T05:49:46;99515.88;;;12.35;100.00
37848;BME280;23688;33.130;-117.188;2022-12-29T05:52:12;99527.06;;;12.32;100.00
37848;BME280;23688;33.130;-117.188;2022-12-29T05:54:38;99537.69;;;12.38;100.00
37848;BME280;23688;33.130;-117.188;2022-12-29T05:57:04;99546.53;;;12.43;100.00
37848;BME280;23688;33.130;-117.188;2022-12-29T05:59:31;99540.41;;;12.41;100.00
37848;BME280;23688;33.130;-117.188;2022-12-29T06:01:57;99533.63;;;12.47;100.00
37848;BME280;23688;33.130;-117.188;2022-12-29T06:04:24;99527.41;;;12.41;100.00
37848;BME280;23688;33.130;-117.188;2022-12-29T06:06:50;99533.63;;;12.47;100.00
37848;BME280;23688;33.130;-117.188;2022-12-29T06:09:16;99543.31;;;12.51;100.00
37848;BME280;23688;33.130;-117.188;2022-12-29T06:11:42;99541.56;;;12.50;100.00
37848;BME280;23688;33.130;-117.188;2022-12-29T06:14:09;99542.50;;;12.52;100.00
37848;BME280;23688;33.130;-117.188;2022-12-29T06:16:35;99548.47;;;12.49;100.00
37848;BME280;23688;33.130;-117.188;2022-12-29T06:19:01;99556.50;;;12.55;100.00
37848;BME280;23688;33.130;-117.188;2022-12-29T06:21:28;99563.31;;;12.52;100.00
37848;BME280;23688;33.130;-117.188;2022-12-29T06:23:54;99571.81;;;12.46;100.00
37848;BME280;23688;33.130;-117.188;2022-12-29T06:26:20;99586.06;;;12.57;100.00
37848;BME280;23688;33.130;-117.188;2022-12-29T06:28:47;99578.44;;;12.62;100.00
37848;BME280;23688;33.130;-117.188;2022-12-29T06:31:13;99563.50;;;12.56;100.00
37848;BME280;23688;33.130;-117.188;2022-12-29T06:33:42;99563.75;;;12.64;100.00
37848;BME280;23688;33.130;-117.188;2022-12-29T06:36:08;99555.09;;;12.65;100.00
37848;BME280;23688;33.130;-117.188;2022-12-29T06:38:34;99541.91;;;12.60;100.00
37848;BME280;23688;33.130;-117.188;2022-12-29T06:41:01;99537.47;;;12.58;100.00
37848;BME280;23688;33.130;-117.188;2022-12-29T06:43:27;99538.47;;;12.61;100.00
37848;BME280;23688;33.130;-117.188;2022-12-29T06:45:53;99535.78;;;12.58;100.00
37848;BME280;23688;33.130;-117.188;2022-12-29T06:48:20;99536.50;;;12.54;100.00
37848;BME280;23688;33.130;-117.188;2022-12-29T06:50:46;99539.91;;;12.53;100.00
37848;BME280;23688;33.130;-117.188;2022-12-29T06:53:12;99514.56;;;12.48;100.00
37848;BME280;23688;33.130;-117.188;2022-12-29T06:55:39;99507.28;;;12.37;100.00
37848;BME280;23688;33.130;-117.188;2022-12-29T06:58:05;99528.81;;;12.33;100.00
37848;BME280;23688;33.130;-117.188;2022-12-29T07:00:32;99549.88;;;12.39;100.00
37848;BME280;23688;33.130;-117.188;2022-12-29T07:02:58;99532.34;;;12.34;100.00
37848;BME280;23688;33.130;-117.188;2022-12-29T07:05:27;99525.56;;;12.39;100.00
37848;BME280;23688;33.130;-117.188;2022-12-29T07:07:54;99522.06;;;12.38;100.00
37848;BME280;23688;33.130;-117.188;2022-12-29T07:10:21;99526.38;;;12.38;100.00
37848;BME280;23688;33.130;-117.188;2022-12-29T07:12:47;99526.44;;;12.39;100.00
37848;BME280;23688;33.130;-117.188;2022-12-29T07:15:14;99529.84;;;12.37;100.00
37848;BME280;23688;33.130;-117.188;2022-12-29T07:17:40;99507.06;;;12.31;100.00
37848;BME280;23688;33.130;-117.188;2022-12-29T07:20:07;99528.22;;;12.40;100.00
37848;BME280;23688;33.130;-117.188;2022-12-29T07:22:34;99514.38;;;12.41;100.00
37848;BME280;23688;33.130;-117.188;2022-12-29T07:25:01;99517.06;;;12.45;100.00
37848;BME280;23688;33.130;-117.188;2022-12-29T07:27:28;99505.94;;;12.49;100.00
37848;BME280;23688;33.130;-117.188;2022-12-29T07:29:55;99470.22;;;12.45;100.00
37848;BME280;23688;33.130;-117.188;2022-12-29T07:32:21;99484.34;;;12.53;100.00
37848;BME280;23688;33.130;-117.188;2022-12-29T07:34:47;99457.28;;;12.48;100.00
37848;BME280;23688;33.130;-117.188;2022-12-29T07:37:17;99460.09;;;12.54;100.00
37848;BME280;23688;33.130;-117.188;2022-12-29T07:39:43;99451.53;;;12.58;100.00
37848;BME280;23688;33.130;-117.188;2022-12-29T07:42:10;99452.38;;;12.57;100.00
37848;BME280;23688;33.130;-117.188;2022-12-29T07:44:36;99448.03;;;12.56;100.00
37848;BME280;23688;33.130;-117.188;2022-12-29T07:47:02;99435.75;;;12.53;100.00
37848;BME280;23688;33.130;-117.188;2022-12-29T07:49:28;99428.84;;;12.54;100.00
37848;BME280;23688;33.130;-117.188;2022-12-29T07:51:55;99445.53;;;12.60;100.00
37848;BME280;23688;33.130;-117.188;2022-12-29T07:54:21;99447.25;;;12.60;100.00
37848;BME280;23688;33.130;-117.188;2022-12-29T07:56:48;99446.53;;;12.64;100.00
37848;BME280;23688;33.130;-117.188;2022-12-29T07:59:14;99427.19;;;12.56;100.00
37848;BME280;23688;33.130;-117.188;2022-12-29T08:01:40;99449.97;;;12.63;100.00
37848;BME280;23688;33.130;-117.188;2022-12-29T08:04:07;99450.88;;;12.63;100.00
37848;BME280;23688;33.130;-117.188;2022-12-29T08:06:33;99459.72;;;12.69;100.00
37848;BME280;23688;33.130;-117.188;2022-12-29T08:09:00;99466.75;;;12.71;100.00
37848;BME280;23688;33.130;-117.188;2022-12-29T08:11:27;99469.34;;;12.71;100.00
37848;BME280;23688;33.130;-117.188;2022-12-29T08:13:53;99459.66;;;12.67;100.00
37848;BME280;23688;33.130;-117.188;2022-12-29T08:16:20;99450.97;;;12.67;100.00
37848;BME280;23688;33.130;-117.188;2022-12-29T08:18:46;99451.91;;;12.69;100.00
37848;BME280;23688;33.130;-117.188;2022-12-29T08:21:13;99450.09;;;12.68;100.00
37848;BME280;23688;33.130;-117.188;2022-12-29T08:23:39;99471.97;;;12.73;100.00
37848;BME280;23688;33.130;-117.188;2022-12-29T08:26:06;99466.75;;;12.71;100.00
37848;BME280;23688;33.130;-117.188;2022-12-29T08:28:33;99451.13;;;12.73;100.00
37848;BME280;23688;33.130;-117.188;2022-12-29T08:31:00;99450.22;;;12.71;100.00
37848;BME280;23688;33.130;-117.188;2022-12-29T08:33:28;99428.47;;;12.70;100.00
37848;BME280;23688;33.130;-117.188;2022-12-29T08:36:05;99418.22;;;12.75;100.00
37848;BME280;23688;33.130;-117.188;2022-12-29T08:38:32;99404.13;;;12.68;100.00
37848;BME280;23688;33.130;-117.188;2022-12-29T08:40:59;99415.53;;;12.72;100.00
37848;BME280;23688;33.130;-117.188;2022-12-29T08:43:27;99409.34;;;12.68;100.00
37848;BME280;23688;33.130;-117.188;2022-12-29T08:45:54;99409.47;;;12.73;100.00
37848;BME280;23688;33.130;-117.188;2022-12-29T08:48:20;99391.13;;;12.68;100.00
37848;BME280;23688;33.130;-117.188;2022-12-29T08:50:48;99386.06;;;12.74;100.00
37848;BME280;23688;33.130;-117.188;2022-12-29T08:53:15;99348.66;;;12.72;100.00
37848;BME280;23688;33.130;-117.188;2022-12-29T08:55:45;99351.25;;;12.71;100.00
37848;BME280;23688;33.130;-117.188;2022-12-29T08:58:12;99344.22;;;12.68;100.00
37848;BME280;23688;33.130;-117.188;2022-12-29T09:00:41;99347.56;;;12.64;100.00
37848;BME280;23688;33.130;-117.188;2022-12-29T09:03:07;99372.97;;;12.71;100.00
37848;BME280;23688;33.130;-117.188;2022-12-29T09:05:34;99375.56;;;12.71;100.00
37848;BME280;23688;33.130;-117.188;2022-12-29T09:08:00;99378.16;;;12.71;100.00
37848;BME280;23688;33.130;-117.188;2022-12-29T09:10:26;99379.00;;;12.70;100.00
37848;BME280;23688;33.130;-117.188;2022-12-29T09:12:52;99365.88;;;12.67;100.00
37848;BME280;23688;33.130;-117.188;2022-12-29T09:15:19;99361.59;;;12.69;100.00
37848;BME280;23688;33.130;-117.188;2022-12-29T09:17:45;99372.97;;;12.71;100.00
37848;BME280;23688;33.130;-117.188;2022-12-29T09:20:13;99367.69;;;12.70;100.00
37848;BME280;23688;33.130;-117.188;2022-12-29T09:22:41;99377.28;;;12.71;100.00
37848;BME280;23688;33.130;-117.188;2022-12-29T09:25:07;99385.09;;;12.71;100.00
37848;BME280;23688;33.130;-117.188;2022-12-29T09:27:35;99385.19;;;12.74;100.00
37848;BME280;23688;33.130;-117.188;2022-12-29T09:30:03;99378.13;;;12.70;100.00
37848;BME280;23688;33.130;-117.188;2022-12-29T09:32:31;99360.53;;;12.62;100.00
37848;BME280;23688;33.130;-117.188;2022-12-29T09:34:58;99356.09;;;12.58;100.00
37848;BME280;23688;33.130;-117.188;2022-12-29T09:37:24;99370.06;;;12.62;100.00
37848;BME280;23688;33.130;-117.188;2022-12-29T09:39:50;99376.06;;;12.59;100.00
37848;BME280;23688;33.130;-117.188;2022-12-29T09:42:24;99375.19;;;12.59;100.00
37848;BME280;23688;33.130;-117.188;2022-12-29T09:45:14;99366.16;;;12.48;100.00
37848;BME280;23688;33.130;-117.188;2022-12-29T09:47:43;99366.69;;;12.37;100.00
37848;BME280;23688;33.130;-117.188;2022-12-29T09:50:24;99375.44;;;12.39;100.00
37848;BME280;23688;33.130;-117.188;2022-12-29T09:53:03;99381.59;;;12.41;100.00
37848;BME280;23688;33.130;-117.188;2022-12-29T09:55:36;99372.75;;;12.36;100.00
37848;BME280;23688;33.130;-117.188;2022-12-29T09:58:10;99361.44;;;12.36;100.00
37848;BME280;23688;33.130;-117.188;2022-12-29T10:01:07;99358.09;;;12.40;100.00
37848;BME280;23688;33.130;-117.188;2022-12-29T10:03:53;99338.94;;;12.38;100.00
37848;BME280;23688;33.130;-117.188;2022-12-29T10:15:06;99341.38;;;12.33;100.00
37848;BME280;23688;33.130;-117.188;2022-12-29T10:17:53;99334.13;;;12.23;100.00
37848;BME280;23688;33.130;-117.188;2022-12-29T10:25:56;99363.28;;;12.13;100.00
37848;BME280;23688;33.130;-117.188;2022-12-29T10:29:35;99367.03;;;12.21;100.00
37848;BME280;23688;33.130;-117.188;2022-12-29T10:31:37;99355.94;;;12.27;100.00
37848;BME280;23688;33.130;-117.188;2022-12-29T10:34:27;99369.84;;;12.27;100.00
37848;BME280;23688;33.130;-117.188;2022-12-29T10:37:02;99377.66;;;12.27;100.00
37848;BME280;23688;33.130;-117.188;2022-12-29T10:39:38;99371.44;;;12.24;100.00
37848;BME280;23688;33.130;-117.188;2022-12-29T10:42:20;99361.03;;;12.24;100.00
37848;BME280;23688;33.130;-117.188;2022-12-29T10:44:47;99362.03;;;12.27;100.00
37848;BME280;23688;33.130;-117.188;2022-12-29T10:47:17;99360.16;;;12.23;100.00
37848;BME280;23688;33.130;-117.188;2022-12-29T10:49:47;99378.47;;;12.26;100.00
37848;BME280;23688;33.130;-117.188;2022-12-29T10:52:15;99381.06;;;12.26;100.00
37848;BME280;23688;33.130;-117.188;2022-12-29T10:57:35;99358.41;;;12.22;100.00
37848;BME280;23688;33.130;-117.188;2022-12-29T11:00:14;99358.28;;;12.19;100.00
37848;BME280;23688;33.130;-117.188;2022-12-29T11:05:34;99366.88;;;12.16;100.00
37848;BME280;23688;33.130;-117.188;2022-12-29T11:08:12;99367.81;;;12.18;100.00
37848;BME280;23688;33.130;-117.188;2022-12-29T11:10:41;99345.16;;;12.14;100.00
37848;BME280;23688;33.130;-117.188;2022-12-29T11:13:29;99355.81;;;12.22;100.00
37848;BME280;23688;33.130;-117.188;2022-12-29T11:15:56;99363.69;;;12.25;100.00
37848;BME280;23688;33.130;-117.188;2022-12-29T11:18:32;99366.38;;;12.28;100.00
37848;BME280;23688;33.130;-117.188;2022-12-29T11:21:01;99349.81;;;12.25;100.00
37848;BME280;23688;33.130;-117.188;2022-12-29T11:23:39;99372.53;;;12.30;100.00
37848;BME280;23688;33.130;-117.188;2022-12-29T11:26:17;99374.25;;;12.30;100.00
37848;BME280;23688;33.130;-117.188;2022-12-29T11:28:46;99391.75;;;12.34;100.00
37848;BME280;23688;33.130;-117.188;2022-12-29T11:31:17;99408.34;;;12.37;100.00
37848;BME280;23688;33.130;-117.188;2022-12-29T11:33:44;99424.03;;;12.39;100.00
37848;BME280;23688;33.130;-117.188;2022-12-29T11:36:22;99434.47;;;12.40;100.00
37848;BME280;23688;33.130;-117.188;2022-12-29T11:38:54;99445.75;;;12.39;100.00
37848;BME280;23688;33.130;-117.188;2022-12-29T11:41:29;99464.66;;;12.34;100.00
37848;BME280;23688;33.130;-117.188;2022-12-29T11:43:59;99460.06;;;12.27;100.00
37848;BME280;23688;33.130;-117.188;2022-12-29T11:46:32;99464.59;;;12.32;100.00
37848;BME280;23688;33.130;-117.188;2022-12-29T11:49:00;99447.97;;;12.29;100.00
37848;BME280;23688;33.130;-117.188;2022-12-29T11:54:00;99463.75;;;12.33;100.00
37848;BME280;23688;33.130;-117.188;2022-12-29T11:56:38;99442.97;;;12.35;100.00
37848;BME280;23688;33.130;-117.188;2022-12-29T12:01:58;99409.34;;;12.15;100.00
37848;BME280;23688;33.130;-117.188;2022-12-29T12:04:29;99405.91;;;12.16;100.00
37848;BME280;23688;33.130;-117.188;2022-12-29T12:07:12;99420.50;;;12.11;100.00
37848;BME280;23688;33.130;-117.188;2022-12-29T12:09:50;99434.38;;;12.12;100.00
37848;BME280;23688;33.130;-117.188;2022-12-29T12:13:03;99432.53;;;12.08;100.00
37848;BME280;23688;33.130;-117.188;2022-12-29T12:15:39;99420.56;;;12.13;100.00
37848;BME280;23688;33.130;-117.188;2022-12-29T12:18:15;99404.06;;;12.12;100.00
37848;BME280;23688;33.130;-117.188;2022-12-29T12:20:54;99389.16;;;12.08;100.00
37848;BME280;23688;33.130;-117.188;2022-12-29T12:24:04;99423.97;;;12.12;100.00
37848;BME280;23688;33.130;-117.188;2022-12-29T12:26:50;99412.81;;;12.14;100.00
37848;BME280;23688;33.130;-117.188;2022-12-29T12:29:24;99414.63;;;12.17;100.00
37848;BME280;23688;33.130;-117.188;2022-12-29T12:31:57;99404.25;;;12.18;100.00
37848;BME280;23688;33.130;-117.188;2022-12-29T12:34:33;99417.41;;;12.23;100.00
37848;BME280;23688;33.130;-117.188;2022-12-29T12:43:12;99410.66;;;12.28;100.00
37848;BME280;23688;33.130;-117.188;2022-12-29T12:45:49;99410.66;;;12.28;100.00
37848;BME280;23688;33.130;-117.188;2022-12-29T12:48:56;99417.63;;;12.29;100.00
37848;BME280;23688;33.130;-117.188;2022-12-29T12:57:00;99427.94;;;12.26;100.00
37848;BME280;23688;33.130;-117.188;2022-12-29T13:02:11;99437.69;;;12.32;100.00
37848;BME280;23688;33.130;-117.188;2022-12-29T13:04:46;99435.09;;;12.33;100.00
37848;BME280;23688;33.130;-117.188;2022-12-29T13:12:54;99444.69;;;12.34;100.00
37848;BME280;23688;33.130;-117.188;2022-12-29T13:18:43;99440.31;;;12.33;100.00
37848;BME280;23688;33.130;-117.188;2022-12-29T13:21:25;99431.47;;;12.28;100.00
37848;BME280;23688;33.130;-117.188;2022-12-29T13:29:44;99440.28;;;12.32;100.00
37848;BME280;23688;33.130;-117.188;2022-12-29T13:35:05;99439.44;;;12.33;100.00
37848;BME280;23688;33.130;-117.188;2022-12-29T13:37:45;99422.88;;;12.31;100.00
37848;BME280;23688;33.130;-117.188;2022-12-29T13:40:16;99455.84;;;12.30;100.00
37848;BME280;23688;33.130;-117.188;2022-12-29T13:42:43;99463.50;;;12.26;100.00
37848;BME280;23688;33.130;-117.188;2022-12-29T13:45:15;99477.53;;;12.31;100.00
37848;BME280;23688;33.130;-117.188;2022-12-29T13:47:57;99501.13;;;12.35;100.00
37848;BME280;23688;33.130;-117.188;2022-12-29T13:50:27;99484.53;;;12.32;100.00
37848;BME280;23688;33.130;-117.188;2022-12-29T14:01:14;99498.44;;;12.32;100.00
37848;BME280;23688;33.130;-117.188;2022-12-29T14:03:47;99518.53;;;12.36;100.00
37848;BME280;23688;33.130;-117.188;2022-12-29T14:06:29;99511.53;;;12.35;100.00
37848;BME280;23688;33.130;-117.188;2022-12-29T14:09:02;99529.84;;;12.37;100.00
37848;BME280;23688;33.130;-117.188;2022-12-29T14:11:38;99520.22;;;12.36;100.00
37848;BME280;23688;33.130;-117.188;2022-12-29T14:14:28;99521.19;;;12.38;100.00
37848;BME280;23688;33.130;-117.188;2022-12-29T14:17:11;99515.78;;;12.32;100.00
37848;BME280;23688;33.130;-117.188;2022-12-29T14:19:43;99525.41;;;12.34;100.00
37848;BME280;23688;33.130;-117.188;2022-12-29T14:22:10;99544.50;;;12.35;100.00